Time;durP1;ratioP1;P1;durP2;ratioP2;P2;SDS_P1;SDS_P2;PMS_P1;PMS_P2;Temp;Humidity;BMP_temperature;BMP_pressure;BME280_temperature;BME280_humidity;BME280_pressure;Samples;Min_cycle;Max_cycle;Signal;HPM_P1;HPM_P2
2022/05/13 00:01:21;;;;;;;22.17;7.30;;;;;;;13.43;48.44;100804.52;1693751;82;28204;-63
2022/05/13 00:03:50;;;;;;;14.53;5.97;;;;;;;13.42;48.54;100809.98;1694241;82;99418;-63
2022/05/13 00:06:16;;;;;;;9.18;4.80;;;;;;;13.40;48.65;100807.85;1688338;82;25759;-62
2022/05/13 00:08:43;;;;;;;8.28;4.60;;;;;;;13.36;48.71;100802.23;1687182;82;25755;-63
2022/05/13 00:11:11;;;;;;;9.85;4.40;;;;;;;13.33;48.78;100797.41;1691475;82;98732;-62
2022/05/13 00:13:39;;;;;;;10.48;4.37;;;;;;;13.30;48.80;100798.91;1693524;82;27402;-62
2022/05/13 00:16:06;;;;;;;9.78;4.85;;;;;;;13.26;48.85;100807.23;1693443;81;98992;-62
2022/05/13 00:18:34;;;;;;;11.53;3.60;;;;;;;13.22;48.92;100806.52;1712705;80;25749;-62
2022/05/13 00:21:00;;;;;;;8.65;3.47;;;;;;;13.18;49.05;100803.58;1713333;81;27571;-62
2022/05/13 00:23:29;;;;;;;9.90;3.72;;;;;;;13.12;49.02;100815.98;1706567;80;98519;-62
2022/05/13 00:25:54;;;;;;;7.08;3.80;;;;;;;13.07;49.17;100811.78;1715432;81;27468;-62
2022/05/13 00:28:22;;;;;;;11.15;3.40;;;;;;;13.04;49.28;100809.24;1706428;81;98826;-62
2022/05/13 00:30:48;;;;;;;9.88;3.95;;;;;;;12.99;49.31;100813.07;1716572;81;25754;-62
2022/05/13 00:33:16;;;;;;;9.53;3.98;;;;;;;12.95;49.47;100816.00;1711880;81;98921;-64
2022/05/13 00:35:44;;;;;;;12.23;4.40;;;;;;;12.92;49.53;100818.36;1657897;84;25902;-63
2022/05/13 00:38:11;;;;;;;10.38;3.77;;;;;;;12.88;49.60;100805.14;1663042;84;27496;-62
2022/05/13 00:40:42;;;;;;;15.00;3.83;;;;;;;12.84;49.66;100807.12;1678107;83;99042;-62
2022/05/13 00:43:12;;;;;;;8.55;4.37;;;;;;;12.80;49.81;100804.19;1700629;82;25810;-64
2022/05/13 00:45:40;;;;;;;8.70;3.60;;;;;;;12.77;49.91;100796.74;1697073;83;99078;-62
2022/05/13 00:48:09;;;;;;;13.68;3.90;;;;;;;12.73;50.02;100800.05;1693014;82;25848;-62
2022/05/13 00:50:40;;;;;;;7.12;3.92;;;;;;;12.71;50.07;100799.73;1687190;82;27492;-64
2022/05/13 00:53:06;;;;;;;;;;;;;;;12.67;50.21;100797.20;1693659;82;98808;-62
2022/05/13 00:55:43;;;;;;;9.30;3.33;;;;;;;12.63;50.30;100802.33;1687723;82;25788;-62
2022/05/13 00:58:15;;;;;;;13.30;3.72;;;;;;;12.59;50.29;100797.17;1682492;82;98804;-63
2022/05/13 01:00:41;;;;;;;7.70;4.03;;;;;;;12.56;50.41;100795.98;1683866;82;26358;-62
2022/05/13 01:03:08;;;;;;;11.03;3.77;;;;;;;12.52;50.49;100791.70;1658685;84;29530;-62
2022/05/13 01:05:36;;;;;;;7.17;4.03;;;;;;;12.49;50.56;100798.58;1690432;82;98831;-62
2022/05/13 01:08:07;;;;;;;9.73;4.15;;;;;;;12.46;50.65;100804.97;1693776;83;25818;-62
2022/05/13 01:10:36;;;;;;;12.07;3.60;;;;;;;12.43;50.79;100796.19;1680776;82;98824;-62
2022/05/13 01:13:07;;;;;;;15.90;4.03;;;;;;;12.40;50.88;100799.89;1689880;82;25786;-63
2022/05/13 01:15:38;;;;;;;8.73;3.40;;;;;;;12.37;50.93;100800.52;1692847;83;99216;-62
2022/05/13 01:18:07;;;;;;;9.23;3.55;;;;;;;12.33;51.02;100794.41;1696652;82;25744;-62
2022/05/13 01:20:50;;;;;;;16.20;4.30;;;;;;;12.31;51.10;100798.98;1691410;82;25851;-64
2022/05/13 01:23:30;;;;;;;10.35;3.30;;;;;;;12.29;51.16;100803.56;1688840;82;98887;-63
2022/05/13 01:26:01;;;;;;;13.95;3.55;;;;;;;12.26;51.26;100794.30;1684114;83;26239;-63
2022/05/13 01:28:36;;;;;;;12.55;3.40;;;;;;;12.24;51.32;100795.72;1662957;84;99110;-62
2022/05/13 01:31:08;;;;;;;14.68;3.70;;;;;;;12.21;51.39;100795.00;1632539;85;26285;-62
2022/05/13 01:33:35;;;;;;;6.50;3.45;;;;;;;12.18;51.48;100794.67;1660827;84;99047;-63
2022/05/13 01:36:04;;;;;;;8.35;3.58;;;;;;;12.17;51.59;100796.96;1642451;84;25787;-62
2022/05/13 01:38:35;;;;;;;10.82;4.30;;;;;;;12.16;51.63;100797.91;1660709;84;26301;-62
2022/05/13 01:41:03;;;;;;;;;;;;;;;12.15;51.66;100799.32;1671025;84;99065;-62
2022/05/13 01:43:30;;;;;;;12.25;3.30;;;;;;;12.12;51.88;100792.75;1646091;85;25735;-62
2022/05/13 01:45:56;;;;;;;9.25;3.27;;;;;;;12.08;51.79;100797.86;1668253;84;99145;-62
2022/05/13 01:48:26;;;;;;;11.65;3.17;;;;;;;12.07;51.84;100797.47;1686227;83;26177;-63
2022/05/13 01:50:53;;;;;;;7.72;3.67;;;;;;;12.05;51.85;100789.95;1687649;83;25685;-63
2022/05/13 01:53:20;;;;;;;5.92;3.33;;;;;;;12.01;51.91;100790.09;1664371;84;98792;-63
2022/05/13 01:55:46;;;;;;;16.60;4.05;;;;;;;11.99;52.01;100790.64;1670684;84;26329;-62
2022/05/13 01:58:19;;;;;;;9.28;3.72;;;;;;;11.99;52.09;100784.39;1660605;83;98918;-62
2022/05/13 02:00:47;;;;;;;7.47;3.15;;;;;;;11.97;52.07;100782.25;1613975;86;25860;-62
2022/05/13 02:06:03;;;;;;;7.62;3.30;;;;;;;11.91;52.26;100779.85;1688127;82;28285;-62
2022/05/13 02:08:31;;;;;;;10.13;3.83;;;;;;;11.89;52.29;100777.23;1678653;82;25684;-62
2022/05/13 02:10:57;;;;;;;8.40;4.05;;;;;;;11.88;52.36;100774.62;1696023;82;98899;-62
2022/05/13 02:13:23;;;;;;;10.10;3.27;;;;;;;11.85;52.49;100772.95;1690465;82;28571;-62
2022/05/13 02:15:52;;;;;;;7.25;3.22;;;;;;;11.83;52.56;100768.13;1692929;82;99060;-65
2022/05/13 02:18:21;;;;;;;11.43;3.77;;;;;;;11.81;52.63;100771.35;1685264;82;27521;-62
2022/05/13 02:20:48;;;;;;;7.37;3.40;;;;;;;11.77;52.65;100771.09;1685167;82;26177;-62
2022/05/13 02:23:18;;;;;;;11.60;4.15;;;;;;;11.73;52.81;100765.90;1687468;82;98745;-63
2022/05/13 02:25:44;;;;;;;11.57;4.20;;;;;;;11.69;52.93;100757.98;1701102;82;26158;-62
2022/05/13 02:28:15;;;;;;;7.08;3.65;;;;;;;11.68;53.00;100765.64;1695795;82;98791;-63
2022/05/13 02:30:40;;;;;;;11.83;4.20;;;;;;;11.65;53.05;100758.20;1694437;82;25808;-62
2022/05/13 02:33:06;;;;;;;14.00;3.83;;;;;;;11.61;53.12;100762.84;1696129;82;25890;-63
2022/05/13 02:35:34;;;;;;;7.10;3.33;;;;;;;11.58;53.18;100762.10;1681905;82;99061;-62
2022/05/13 02:38:01;;;;;;;11.40;4.12;;;;;;;11.53;53.29;100757.41;1691006;82;25789;-62
2022/05/13 02:43:15;;;;;;;14.10;4.60;;;;;;;11.47;53.42;100757.69;1650221;84;27513;-62
2022/05/13 02:45:42;;;;;;;9.70;4.05;;;;;;;11.40;53.59;100762.47;1692211;82;99135;-62
2022/05/13 02:48:10;;;;;;;6.78;4.10;;;;;;;11.36;53.66;100763.07;1690696;82;25773;-62
2022/05/13 02:50:38;;;;;;;8.15;4.15;;;;;;;11.29;53.79;100754.89;1689685;82;25781;-62
2022/05/13 02:53:07;;;;;;;13.43;4.33;;;;;;;11.24;53.89;100759.59;1653840;83;98754;-62
2022/05/13 02:55:33;;;;;;;10.88;4.65;;;;;;;11.21;54.00;100753.48;1641193;85;29619;-62
2022/05/13 02:57:59;;;;;;;12.63;4.20;;;;;;;11.18;54.08;100750.47;1684451;81;98981;-62
2022/05/13 03:00:26;;;;;;;14.50;4.35;;;;;;;11.15;54.19;100755.97;1692880;82;25866;-62
2022/05/13 03:02:52;;;;;;;12.50;4.45;;;;;;;11.11;54.24;100750.34;1693067;82;25865;-62
2022/05/13 03:05:19;;;;;;;10.08;4.60;;;;;;;11.08;54.40;100742.89;1694834;83;98911;-62
2022/05/13 03:07:45;;;;;;;10.35;5.45;;;;;;;11.06;54.51;100751.01;1688718;82;29431;-62
2022/05/13 03:10:13;;;;;;;10.08;4.25;;;;;;;11.02;54.64;100751.61;1686200;82;99143;-65
2022/05/13 03:12:40;;;;;;;13.15;4.62;;;;;;;11.01;54.73;100760.59;1690430;82;25783;-62
2022/05/13 03:15:10;;;;;;;10.90;4.05;;;;;;;10.99;54.76;100753.55;1687512;82;25752;-62
2022/05/13 03:17:37;;;;;;;10.72;4.75;;;;;;;10.96;54.78;100757.23;1687488;82;98859;-62
2022/05/13 03:20:07;;;;;;;9.65;4.08;;;;;;;10.94;54.90;100753.75;1696822;82;27540;-62
2022/05/13 03:22:33;;;;;;;9.73;4.08;;;;;;;10.91;55.10;100759.25;1688283;82;98795;-64
2022/05/13 03:25:00;;;;;;;11.57;4.97;;;;;;;10.87;55.12;100758.98;1691329;82;25883;-64
2022/05/13 03:27:28;;;;;;;10.90;5.10;;;;;;;10.84;55.31;100758.23;1684839;82;99092;-64
2022/05/13 03:29:54;;;;;;;12.60;5.03;;;;;;;10.84;55.46;100751.53;1688522;82;25665;-63
2022/05/13 03:32:23;;;;;;;15.75;4.85;;;;;;;10.84;55.58;100752.88;1656690;84;27418;-63
2022/05/13 03:34:52;;;;;;;12.47;4.67;;;;;;;10.86;55.68;100752.34;1690030;82;99245;-63
2022/05/13 03:37:20;;;;;;;9.00;5.22;;;;;;;10.86;55.71;100749.19;1691412;82;25837;-63
2022/05/13 03:39:47;;;;;;;9.88;4.53;;;;;;;10.86;55.87;100750.53;1669099;84;99380;-63
2022/05/13 03:42:14;;;;;;;13.38;5.15;;;;;;;10.88;55.90;100747.78;1682820;82;25770;-63
2022/05/13 03:44:40;;;;;;;15.72;5.30;;;;;;;10.89;55.96;100746.84;1660200;84;27525;-62
2022/05/13 03:47:06;;;;;;;10.28;4.65;;;;;;;10.91;56.18;100745.84;1693956;82;99015;-63
2022/05/13 03:49:34;;;;;;;13.25;4.72;;;;;;;10.91;56.08;100743.16;1688532;82;26577;-63
2022/05/13 03:52:01;;;;;;;10.88;5.12;;;;;;;10.92;56.23;100740.00;1666078;83;98852;-63
2022/05/13 03:54:27;;;;;;;13.70;5.65;;;;;;;10.93;56.32;100744.43;1687765;82;25747;-62
2022/05/13 03:56:53;;;;;;;12.95;5.50;;;;;;;10.95;56.41;100741.22;1665688;82;28369;-63
2022/05/13 03:59:20;;;;;;;21.70;5.80;;;;;;;10.97;56.44;100738.00;1660358;83;98799;-63
2022/05/13 04:01:46;;;;;;;12.68;5.42;;;;;;;11.01;56.50;100740.95;1692974;81;25771;-64
2022/05/13 04:04:15;;;;;;;14.13;5.12;;;;;;;11.02;56.52;100735.52;1690528;83;98863;-64
2022/05/13 04:09:27;;;;;;;14.98;5.30;;;;;;;11.12;56.61;100741.35;1693801;82;98986;-63
2022/05/13 04:17:21;;;;;;;11.75;4.95;;;;;;;11.27;56.76;100745.16;1683537;83;98958;-63
2022/05/13 04:19:49;;;;;;;26.30;6.25;;;;;;;11.34;56.76;100743.48;1691490;82;25981;-62
2022/05/13 04:22:15;;;;;;;16.80;4.75;;;;;;;11.45;56.81;100743.47;1692798;82;98916;-63
2022/05/13 04:24:41;;;;;;;19.50;5.42;;;;;;;11.53;56.85;100741.31;1685299;82;25797;-62
2022/05/13 04:27:07;;;;;;;14.18;5.03;;;;;;;11.65;56.83;100746.12;1682206;83;26560;-62
2022/05/13 04:29:34;;;;;;;18.48;5.33;;;;;;;11.76;56.84;100750.98;1683014;83;98593;-63
2022/05/13 04:32:00;;;;;;;8.78;4.83;;;;;;;11.88;56.81;100755.34;1687980;84;26046;-63
2022/05/13 04:34:26;;;;;;;10.55;4.65;;;;;;;11.98;56.82;100751.28;1680879;84;98736;-63
2022/05/13 04:36:53;;;;;;;20.77;4.87;;;;;;;12.12;56.81;100751.09;1684990;83;26648;-63
2022/05/13 04:39:21;;;;;;;12.10;4.58;;;;;;;12.24;56.75;100757.23;1658392;84;98931;-63
2022/05/13 04:44:31;;;;;;;13.50;4.85;;;;;;;12.46;56.71;100752.55;1691049;83;25780;-63
2022/05/13 04:46:57;;;;;;;12.35;4.20;;;;;;;12.59;56.69;100746.09;1664294;83;98971;-62
2022/05/13 04:49:23;;;;;;;13.18;4.40;;;;;;;12.71;56.63;100749.51;1660870;84;26331;-63
2022/05/13 04:51:51;;;;;;;12.28;4.35;;;;;;;12.83;56.57;100757.43;1675372;82;99013;-63
2022/05/13 04:54:18;;;;;;;12.70;4.50;;;;;;;12.93;56.49;100756.88;1658039;84;26415;-63
2022/05/13 04:56:44;;;;;;;12.75;4.33;;;;;;;13.02;56.39;100758.20;1659972;84;25341;-63
2022/05/13 04:59:10;;;;;;;14.38;5.33;;;;;;;13.10;56.30;100760.02;1666722;84;99196;-63
2022/05/13 05:01:36;;;;;;;9.95;4.10;;;;;;;13.12;56.25;100763.50;1693664;82;25893;-63
2022/05/13 05:04:03;;;;;;;9.20;4.15;;;;;;;13.09;56.10;100754.23;1680666;82;98787;-63
2022/05/13 05:06:28;;;;;;;11.78;3.92;;;;;;;13.11;56.02;100752.34;1667019;84;25943;-63
2022/05/13 05:08:57;;;;;;;16.12;4.20;;;;;;;13.13;55.93;100754.95;1659121;84;25710;-64
2022/05/13 05:11:23;;;;;;;13.90;4.42;;;;;;;13.16;55.84;100749.41;1655849;84;98660;-63
2022/05/13 05:13:51;;;;;;;18.40;4.80;;;;;;;13.16;55.78;100748.96;1682264;83;25779;-63
2022/05/13 05:16:22;;;;;;;11.97;4.12;;;;;;;13.18;55.75;100753.80;1660798;84;99008;-65
2022/05/13 05:18:46;;;;;;;15.63;4.55;;;;;;;13.22;55.68;100756.72;1660887;84;25685;-63
2022/05/13 05:21:12;;;;;;;15.10;4.17;;;;;;;13.25;55.63;100763.77;1631159;85;25853;-63
2022/05/13 05:23:42;;;;;;;17.37;4.17;;;;;;;13.30;55.57;100762.57;1676213;83;98700;-63
2022/05/13 05:26:08;;;;;;;15.40;4.12;;;;;;;13.34;55.49;100761.94;1684923;82;25804;-63
2022/05/13 05:28:39;;;;;;;15.08;4.08;;;;;;;13.40;55.44;100755.35;1679753;83;98906;-63
2022/05/13 05:31:07;;;;;;;8.45;4.05;;;;;;;13.47;55.28;100760.80;1684859;83;25771;-62
2022/05/13 05:33:33;;;;;;;12.63;4.22;;;;;;;13.53;55.25;100760.00;1679270;83;99346;-63
2022/05/13 05:35:59;;;;;;;14.00;4.05;;;;;;;13.60;55.16;100760.55;1688572;83;27402;-63
2022/05/13 05:38:25;;;;;;;8.90;3.47;;;;;;;13.68;55.06;100761.47;1685441;83;27090;-63
2022/05/13 05:40:52;;;;;;;8.03;4.12;;;;;;;13.78;54.94;100762.71;1685098;83;98797;-64
2022/05/13 05:43:21;;;;;;;12.30;4.00;;;;;;;13.87;54.80;100764.42;1689816;83;25791;-64
2022/05/13 05:45:48;;;;;;;10.68;4.10;;;;;;;13.99;54.68;100764.23;1679966;83;99201;-64
2022/05/13 05:48:21;;;;;;;21.62;4.55;;;;;;;14.13;54.51;100766.15;1688056;83;27562;-64
2022/05/13 05:50:50;;;;;;;11.15;3.52;;;;;;;14.27;54.38;100763.55;1682850;83;26502;-63
2022/05/13 05:58:58;;;;;;;18.35;3.27;;;;;;;14.60;53.79;100759.43;1599188;87;99032;-63
2022/05/13 06:01:27;;;;;;;28.20;4.22;;;;;;;14.71;53.23;100762.37;1646254;83;27467;-63
2022/05/13 06:03:53;;;;;;;22.85;4.62;;;;;;;14.78;52.97;100761.53;1680098;83;99060;-63
2022/05/13 06:06:20;;;;;;;11.38;4.35;;;;;;;14.81;52.82;100764.05;1693120;83;25871;-62
2022/05/13 06:08:46;;;;;;;13.80;3.58;;;;;;;14.84;52.69;100759.82;1686393;83;25907;-64
2022/05/13 06:11:14;;;;;;;21.30;3.70;;;;;;;14.92;52.52;100761.10;1687358;83;99009;-62
2022/05/13 06:13:42;;;;;;;18.52;3.85;;;;;;;14.94;52.35;100759.66;1682979;83;27564;-62
2022/05/13 06:16:07;;;;;;;8.83;3.40;;;;;;;15.00;52.14;100755.73;1687675;83;98899;-63
2022/05/13 06:18:36;;;;;;;16.57;3.37;;;;;;;15.03;52.02;100756.41;1688609;83;25893;-63
2022/05/13 06:21:06;;;;;;;7.08;3.85;;;;;;;15.07;51.97;100755.27;1665633;84;25728;-65
2022/05/13 06:23:33;;;;;;;16.00;3.37;;;;;;;15.11;51.75;100754.12;1635475;85;98584;-62
2022/05/13 06:25:59;;;;;;;10.43;3.33;;;;;;;15.18;51.72;100762.23;1634476;85;27457;-62
2022/05/13 06:28:25;;;;;;;17.92;3.30;;;;;;;15.23;51.42;100756.56;1685956;83;98994;-63
2022/05/13 06:30:51;;;;;;;16.82;3.50;;;;;;;15.26;51.28;100756.38;1672264;83;25952;-62
2022/05/13 06:33:21;;;;;;;23.47;4.28;;;;;;;15.28;51.26;100753.09;1690586;82;99013;-63
2022/05/13 06:35:46;;;;;;;16.65;3.60;;;;;;;15.35;51.21;100753.59;1691387;83;25899;-62
2022/05/13 06:38:23;;;;;;;8.18;2.95;;;;;;;15.42;51.18;100750.42;1694915;82;26493;-63
2022/05/13 06:40:54;;;;;;;16.25;3.20;;;;;;;15.52;51.08;100748.89;1690222;82;98935;-63
2022/05/13 06:43:23;;;;;;;12.10;2.75;;;;;;;15.65;50.89;100750.83;1684669;82;25734;-62
2022/05/13 06:45:50;;;;;;;18.57;3.45;;;;;;;15.74;50.74;100750.25;1696645;82;99066;-62
2022/05/13 06:48:16;;;;;;;26.20;3.35;;;;;;;15.90;50.58;100742.91;1692444;82;25747;-65
2022/05/13 06:50:43;;;;;;;16.25;3.25;;;;;;;16.06;50.48;100748.20;1694611;82;25856;-65
2022/05/13 06:53:11;;;;;;;8.98;2.90;;;;;;;16.21;50.13;100744.50;1685540;82;98830;-62
2022/05/13 06:55:44;;;;;;;21.77;3.10;;;;;;;16.42;49.90;100746.28;1689463;83;25871;-62
2022/05/13 06:58:12;;;;;;;16.42;3.15;;;;;;;16.66;49.77;100749.23;1695895;82;98821;-62
2022/05/13 07:00:39;;;;;;;17.50;3.10;;;;;;;16.79;49.31;100750.14;1689339;82;25756;-62
2022/05/13 07:03:07;;;;;;;13.40;3.92;;;;;;;16.85;49.09;100740.25;1692339;82;28251;-63
2022/05/13 07:05:35;;;;;;;9.93;2.85;;;;;;;16.90;48.65;100734.05;1687040;82;99212;-63
2022/05/13 07:08:01;;;;;;;13.90;2.83;;;;;;;16.87;48.61;100735.12;1685382;82;25876;-62
2022/05/13 07:10:28;;;;;;;9.88;2.47;;;;;;;16.89;48.41;100730.95;1682887;83;98902;-63
2022/05/13 07:12:58;;;;;;;7.10;2.25;;;;;;;16.91;48.28;100730.84;1687364;83;25709;-63
2022/05/13 07:15:26;;;;;;;15.83;3.42;;;;;;;16.96;48.37;100728.20;1660690;84;98959;-63
2022/05/13 07:17:52;;;;;;;11.12;2.83;;;;;;;16.98;48.13;100728.97;1690423;82;25654;-64
2022/05/13 07:20:18;;;;;;;14.40;3.35;;;;;;;16.93;47.75;100723.00;1694673;82;26141;-64
2022/05/13 07:22:44;;;;;;;6.53;3.10;;;;;;;16.87;47.86;100729.70;1659283;84;98941;-64
2022/05/13 07:25:10;;;;;;;8.80;3.20;;;;;;;16.90;47.64;100727.76;1666252;84;26020;-64
2022/05/13 07:27:36;;;;;;;7.65;2.85;;;;;;;16.93;47.50;100726.20;1694823;82;98852;-64
2022/05/13 07:30:05;;;;;;;7.03;3.17;;;;;;;17.00;47.62;100721.61;1683674;82;25822;-64
2022/05/13 07:32:33;;;;;;;13.30;4.30;;;;;;;17.09;47.36;100724.17;1686077;82;25736;-63
2022/05/13 07:35:00;;;;;;;10.55;2.80;;;;;;;17.14;47.46;100720.17;1689135;82;98932;-63
2022/05/13 07:37:26;;;;;;;10.38;3.45;;;;;;;17.31;47.24;100719.48;1683670;82;25857;-63
2022/05/13 07:42:36;;;;;;;16.45;3.22;;;;;;;17.38;46.22;100716.72;1691796;82;25731;-63
2022/05/13 07:45:05;;;;;;;13.30;3.25;;;;;;;17.44;46.41;100709.52;1692712;82;26232;-63
2022/05/13 07:47:33;;;;;;;13.05;3.62;;;;;;;17.56;46.24;100709.13;1665782;84;98610;-64
2022/05/13 07:49:59;;;;;;;37.35;3.70;;;;;;;17.68;46.27;100709.16;1689079;83;25734;-64
2022/05/13 07:52:26;;;;;;;17.75;3.27;;;;;;;17.75;46.11;100719.94;1690917;82;99068;-63
2022/05/13 07:54:54;;;;;;;14.85;3.33;;;;;;;17.79;45.65;100711.95;1690617;83;25955;-65
2022/05/13 07:57:20;;;;;;;13.83;3.27;;;;;;;17.76;44.80;100712.18;1686166;83;99046;-63
2022/05/13 08:02:31;;;;;;;8.43;2.83;;;;;;;17.67;44.52;100700.64;1668404;84;25798;-63
2022/05/13 08:04:58;;;;;;;9.58;2.98;;;;;;;17.68;44.58;100702.38;1691581;82;98855;-63
2022/05/13 08:07:24;;;;;;;13.80;2.55;;;;;;;17.73;44.27;100697.48;1698153;83;25753;-64
2022/05/13 08:09:53;;;;;;;9.00;2.77;;;;;;;17.80;44.27;100702.84;1711675;83;99123;-62
2022/05/13 08:12:19;;;;;;;13.62;2.58;;;;;;;17.87;44.05;100701.05;1712390;83;27514;-61
2022/05/13 08:14:45;;;;;;;15.28;2.60;;;;;;;17.88;43.68;100692.80;1713007;83;26025;-60
2022/05/13 08:17:11;;;;;;;10.20;2.52;;;;;;;17.93;43.62;100699.24;1711029;83;98825;-61
2022/05/13 08:19:38;;;;;;;8.15;2.37;;;;;;;18.00;43.21;100700.03;1705536;82;27218;-63
2022/05/13 08:22:05;;;;;;;7.55;2.12;;;;;;;18.01;42.94;100697.70;1689115;83;98687;-61
2022/05/13 08:24:35;;;;;;;12.20;3.58;;;;;;;18.04;42.99;100692.55;1684122;83;25771;-61
2022/05/13 08:27:01;;;;;;;12.70;2.62;;;;;;;18.14;42.99;100686.81;1681054;83;25815;-61
2022/05/13 08:29:27;;;;;;;6.05;2.15;;;;;;;18.30;42.90;100690.58;1666838;84;98951;-61
2022/05/13 08:31:54;;;;;;;10.98;2.50;;;;;;;18.45;42.41;100676.72;1671301;84;27064;-61
2022/05/13 08:34:24;;;;;;;11.90;2.33;;;;;;;18.63;42.47;100684.00;1662407;84;98916;-62
2022/05/13 08:36:50;;;;;;;7.60;3.02;;;;;;;18.80;42.04;100677.27;1667733;83;27428;-62
2022/05/13 08:39:19;;;;;;;16.27;3.12;;;;;;;18.80;41.62;100686.78;1665439;84;98929;-64
2022/05/13 08:41:54;;;;;;;13.15;2.52;;;;;;;18.86;41.20;100682.23;1662683;84;27292;-64
2022/05/13 08:44:20;;;;;;;12.98;3.08;;;;;;;18.81;40.79;100679.00;1670997;82;25801;-65
2022/05/13 08:46:55;;;;;;;10.85;2.65;;;;;;;18.87;40.91;100685.32;1664017;84;98896;-63
2022/05/13 08:49:36;;;;;;;9.13;2.72;;;;;;;18.87;41.11;100671.73;1664473;84;25801;-63
2022/05/13 08:54:59;;;;;;;13.05;3.42;;;;;;;18.72;40.52;100671.08;1634651;85;27537;-63
2022/05/13 08:57:31;;;;;;;11.95;3.08;;;;;;;18.69;40.73;100665.02;1662675;84;99154;-63
2022/05/13 09:00:15;;;;;;;15.50;2.98;;;;;;;18.76;40.71;100668.98;1663881;84;26430;-65
2022/05/13 09:03:01;;;;;;;12.05;3.40;;;;;;;18.81;40.70;100673.08;1666686;83;26655;-62
2022/05/13 09:05:38;;;;;;;7.15;2.95;;;;;;;18.83;40.43;100673.45;1649436;84;98954;-65
2022/05/13 09:08:06;;;;;;;8.53;2.92;;;;;;;18.79;40.33;100664.67;1653565;84;28119;-63
2022/05/13 09:10:38;;;;;;;12.85;3.60;;;;;;;18.84;40.34;100650.74;1664160;83;99428;-63
2022/05/13 09:13:35;;;;;;;8.93;3.95;;;;;;;18.87;40.19;100653.22;1668011;84;26535;-62
2022/05/13 09:16:08;;;;;;;14.07;3.22;;;;;;;18.90;40.32;100640.27;1661669;84;98814;-62
2022/05/13 09:18:39;;;;;;;19.00;3.20;;;;;;;19.07;40.00;100659.32;1671804;84;25747;-63
2022/05/13 09:21:14;;;;;;;;;;;;;;;19.10;39.77;100655.88;1670396;84;28210;-63
2022/05/13 09:23:40;;;;;;;7.45;2.70;;;;;;;19.18;40.04;100650.33;1656609;84;84211;-61
2022/05/13 09:26:19;;;;;;;12.50;3.35;;;;;;;19.31;40.01;100642.44;1626055;85;26613;-61
2022/05/13 09:29:11;;;;;;;9.83;3.00;;;;;;;19.35;39.66;100635.77;1646609;84;98898;-63
2022/05/13 09:31:42;;;;;;;12.15;3.30;;;;;;;19.41;39.96;100632.55;1675954;83;26616;-63
2022/05/13 09:34:39;;;;;;;5.28;3.33;;;;;;;19.63;40.07;100637.16;1682139;82;99435;-63
2022/05/13 09:37:13;;;;;;;14.93;3.47;;;;;;;19.72;39.89;100645.93;1669931;83;25789;-62
2022/05/13 09:39:44;;;;;;;11.75;4.67;;;;;;;19.77;39.68;100649.63;1671641;83;99128;-61
2022/05/13 09:42:26;;;;;;;12.73;3.90;;;;;;;19.76;39.88;100647.41;1667465;84;25736;-62
2022/05/13 09:45:21;;;;;;;10.08;3.17;;;;;;;19.78;39.71;100639.12;1669440;83;25685;-63
2022/05/13 09:48:09;;;;;;;7.92;3.17;;;;;;;19.75;39.66;100638.02;1691367;82;98965;-62
2022/05/13 09:50:55;;;;;;;10.38;2.92;;;;;;;19.84;39.85;100621.44;1700100;82;26592;-64
2022/05/13 09:53:30;;;;;;;19.40;3.72;;;;;;;19.96;39.68;100623.15;1694788;82;98822;-63
2022/05/13 09:56:01;;;;;;;15.20;3.95;;;;;;;19.92;39.17;100614.88;1697650;82;25744;-65
2022/05/13 09:58:38;;;;;;;6.33;2.65;;;;;;;19.77;38.93;100613.78;1694425;82;99021;-64
2022/05/13 10:01:10;;;;;;;12.53;3.10;;;;;;;19.69;38.94;100623.06;1698379;82;27555;-65
2022/05/13 10:03:38;;;;;;;8.18;3.08;;;;;;;19.62;39.00;100619.61;1699124;82;99026;-64
2022/05/13 10:06:14;;;;;;;12.13;3.10;;;;;;;19.58;39.10;100619.00;1701974;82;25979;-65
2022/05/13 10:14:38;;;;;;;7.12;2.77;;;;;;;19.73;39.41;100613.66;1701979;82;27447;-64
2022/05/13 10:17:24;;;;;;;7.97;2.37;;;;;;;19.93;39.23;100607.94;1704074;82;98822;-63
2022/05/13 10:19:57;;;;;;;15.53;2.30;;;;;;;20.05;38.58;100606.06;1700613;82;26326;-62
2022/05/13 10:22:34;;;;;;;7.12;3.27;;;;;;;20.17;38.98;100593.28;1697009;82;98943;-63
2022/05/13 10:25:17;;;;;;;9.55;3.50;;;;;;;20.34;38.73;100599.03;1699340;82;25718;-63
2022/05/13 10:28:01;;;;;;;9.50;3.55;;;;;;;20.32;37.94;100590.63;1703603;81;98965;-65
2022/05/13 10:30:51;;;;;;;12.60;2.92;;;;;;;20.19;38.28;100575.83;1690509;83;25746;-62
2022/05/13 10:33:46;;;;;;;16.75;2.62;;;;;;;20.16;38.39;100588.34;1692678;82;25831;-65
2022/05/13 10:36:26;;;;;;;5.83;2.62;;;;;;;20.17;38.48;100595.51;1716729;81;98855;-64
2022/05/13 10:39:25;;;;;;;10.95;2.83;;;;;;;20.13;38.56;100595.39;1723057;81;26461;-62
2022/05/13 10:41:57;;;;;;;34.67;4.92;;;;;;;20.05;38.29;100587.88;1720584;81;98922;-65
2022/05/13 10:44:52;;;;;;;19.27;3.08;;;;;;;19.94;38.48;100592.48;1694889;82;26363;-63
2022/05/13 10:47:49;;;;;;;9.23;2.70;;;;;;;19.94;38.42;100580.24;1704111;81;99003;-62
2022/05/13 10:50:19;;;;;;;25.90;4.20;;;;;;;19.88;38.31;100580.25;1724936;81;25821;-62
2022/05/13 10:53:01;;;;;;;11.70;3.65;;;;;;;19.99;38.56;100583.44;1718357;81;98918;-62
2022/05/13 10:55:55;;;;;;;9.88;3.00;;;;;;;20.09;38.49;100576.23;1717315;81;27532;-62
2022/05/13 10:58:44;;;;;;;7.92;2.77;;;;;;;20.06;38.55;100581.44;1714211;81;99213;-63
2022/05/13 11:01:42;;;;;;;7.10;2.77;;;;;;;20.05;38.52;100571.55;1692999;82;26559;-62
2022/05/13 11:04:39;;;;;;;13.20;2.85;;;;;;;20.03;38.56;100579.47;1694103;82;98934;-62
2022/05/13 11:07:35;;;;;;;14.25;3.52;;;;;;;19.96;38.30;100579.62;1704222;81;27552;-63
2022/05/13 11:10:15;;;;;;;13.58;2.98;;;;;;;19.92;37.84;100568.63;1718564;81;99127;-62
2022/05/13 11:13:05;;;;;;;10.85;2.87;;;;;;;19.98;38.19;100587.16;1712576;81;25775;-62
2022/05/13 11:15:58;;;;;;;4.55;2.75;;;;;;;20.03;38.06;100578.11;1712370;81;25855;-62
2022/05/13 11:19:02;;;;;;;12.95;2.98;;;;;;;20.05;38.11;100584.29;1715571;81;98513;-63
2022/05/13 11:22:05;;;;;;;10.60;2.90;;;;;;;20.05;37.92;100567.97;1717152;81;26546;-63
2022/05/13 11:28:28;;;;;;;;;;;;;;;20.23;38.05;100574.58;1717057;81;26623;-62
2022/05/13 11:31:20;;;;;;;8.10;2.92;;;;;;;20.42;38.12;100579.35;1708842;81;25562;-63
2022/05/13 11:34:30;;;;;;;8.78;2.77;;;;;;;20.56;38.05;100561.33;1661633;84;25823;-63
2022/05/13 11:37:05;;;;;;;8.90;2.70;;;;;;;20.65;37.84;100552.36;1637525;85;98670;-64
2022/05/13 11:40:00;;;;;;;13.80;3.02;;;;;;;20.84;37.86;100549.37;1668089;83;28207;-63
2022/05/13 11:43:18;;;;;;;14.55;3.20;;;;;;;20.92;37.19;100546.83;1665432;84;99037;-64
2022/05/13 11:46:23;;;;;;;13.70;2.90;;;;;;;20.93;37.08;100539.02;1697067;82;25954;-62
2022/05/13 11:48:53;;;;;;;7.37;2.77;;;;;;;21.04;37.37;100537.08;1699792;82;98934;-63
2022/05/13 11:51:29;;;;;;;4.93;2.67;;;;;;;21.10;37.07;100531.58;1696006;82;25801;-64
2022/05/13 11:54:07;;;;;;;9.60;3.12;;;;;;;20.82;36.70;100532.30;1696937;82;98814;-63
2022/05/13 11:56:38;;;;;;;12.63;3.15;;;;;;;20.61;36.67;100522.31;1700475;82;26601;-62
2022/05/13 11:59:30;;;;;;;15.05;2.92;;;;;;;20.61;36.99;100530.48;1669097;84;99078;-62
2022/05/13 12:02:11;;;;;;;10.25;2.58;;;;;;;20.67;36.87;100529.08;1689768;82;26061;-63
2022/05/13 12:04:59;;;;;;;21.23;3.95;;;;;;;20.67;36.87;100529.08;1709233;81;98974;-66
2022/05/13 12:07:30;;;;;;;13.03;2.42;;;;;;;20.67;36.93;100516.83;1663855;84;27480;-64
2022/05/13 12:10:00;;;;;;;14.50;2.30;;;;;;;20.82;36.73;100529.06;1669206;84;25727;-64
2022/05/13 12:12:35;;;;;;;14.73;3.12;;;;;;;20.71;36.59;100533.27;1661126;84;99072;-64
2022/05/13 12:15:32;;;;;;;6.05;2.87;;;;;;;20.61;36.82;100526.39;1675821;83;25932;-63
2022/05/13 12:18:34;;;;;;;23.18;12.93;;;;;;;20.72;36.72;100533.62;1680517;83;98745;-64
2022/05/13 12:21:25;;;;;;;10.95;2.45;;;;;;;20.65;36.42;100524.27;1662737;84;28105;-63
2022/05/13 12:24:08;;;;;;;9.65;2.87;;;;;;;20.63;36.10;100516.73;1662571;84;99099;-64